createdAt,value
2023-03-11T00:01:40.944Z,95376.41
2023-03-11T00:03:42.458Z,95382.13
2023-03-11T00:05:46.838Z,95386.31
2023-03-11T00:07:49.772Z,95379.44
2023-03-11T00:09:51.247Z,95378.69
2023-03-11T00:11:52.896Z,95394.28
2023-03-11T00:13:54.544Z,95409.06
2023-03-11T00:15:57.513Z,95403.00
2023-03-11T00:17:59.055Z,95401.47
2023-03-11T00:20:00.679Z,95410.97
2023-03-11T00:22:02.968Z,95425.38
2023-03-11T00:24:04.835Z,95418.94
2023-03-11T00:26:06.395Z,95417.34
2023-03-11T00:28:10.290Z,95430.28
2023-03-11T00:30:13.381Z,95430.66
2023-03-11T00:32:14.938Z,95434.81
2023-03-11T00:34:16.480Z,95446.25
2023-03-11T00:36:28.839Z,95452.72
2023-03-11T00:38:30.479Z,95456.53
2023-03-11T00:40:34.470Z,95459.13
2023-03-11T00:42:37.236Z,95466.78
2023-03-11T00:44:38.899Z,95475.88
2023-03-11T00:46:40.446Z,95470.56
2023-03-11T00:48:42.135Z,95475.47
2023-03-11T00:50:44.315Z,95486.91
2023-03-11T00:52:48.079Z,95477.03
2023-03-11T00:54:49.671Z,95488.78
2023-03-11T00:56:51.401Z,95478.47
2023-03-11T00:58:53.541Z,95477.00
2023-03-11T01:00:56.096Z,95486.09
2023-03-11T01:02:58.063Z,95492.56
2023-03-11T01:04:59.677Z,95488.78
2023-03-11T01:07:01.373Z,95483.06
2023-03-11T01:09:04.664Z,95483.81
2023-03-11T01:11:07.344Z,95490.31
2023-03-11T01:13:09.129Z,95492.53
2023-03-11T01:15:18.801Z,95496.72
2023-03-11T01:17:22.070Z,95496.72
2023-03-11T01:19:23.616Z,95495.50
2023-03-11T01:21:25.293Z,95502.34
2023-03-11T01:23:27.184Z,95511.47
2023-03-11T01:25:29.033Z,95509.56
2023-03-11T01:27:32.687Z,95507.25
2023-03-11T01:29:34.483Z,95494.75
2023-03-11T01:31:38.068Z,95501.59
2023-03-11T01:33:40.327Z,95508.72
2023-03-11T01:35:42.219Z,95508.38
2023-03-11T01:37:43.951Z,95517.81
2023-03-11T01:39:45.529Z,95504.56
2023-03-11T01:41:47.650Z,95510.63
2023-03-11T01:43:54.605Z,95511.38
2023-03-11T01:45:59.350Z,95506.09
2023-03-11T01:48:01.583Z,95510.28
2023-03-11T01:50:06.844Z,95504.97
2023-03-11T01:52:09.492Z,95511.41
2023-03-11T01:54:23.435Z,95518.63
2023-03-11T01:56:25.673Z,95516.31
2023-03-11T01:58:33.689Z,95511.44
2023-03-11T02:00:37.330Z,95515.59
2023-03-11T02:02:51.827Z,95511.09
2023-03-11T02:04:54.799Z,95520.16
2023-03-11T02:06:58.951Z,95523.22
2023-03-11T02:09:01.255Z,95522.03
2023-03-11T02:11:06.680Z,95522.06
2023-03-11T02:13:08.988Z,95527.72
2023-03-11T02:15:11.940Z,95537.56
2023-03-11T02:17:14.074Z,95535.72
2023-03-11T02:19:55.534Z,95539.53
2023-03-11T02:21:57.469Z,95543.97
2023-03-11T02:24:14.477Z,95547.06
2023-03-11T02:27:07.207Z,95549.75
2023-03-11T02:29:11.632Z,95550.88
2023-03-11T02:31:13.895Z,95548.56
2023-03-11T02:33:16.826Z,95565.69
2023-03-11T02:35:21.519Z,95555.44
2023-03-11T02:37:23.537Z,95566.78
2023-03-11T02:39:44.697Z,95555.41
2023-03-11T02:41:48.842Z,95554.63
2023-03-11T02:43:50.577Z,95566.47
2023-03-11T02:45:54.125Z,95556.94
2023-03-11T02:47:59.567Z,95565.25
2023-03-11T02:50:01.361Z,95569.13
2023-03-11T02:52:04.756Z,95568.31
2023-03-11T02:54:06.473Z,95566.38
2023-03-11T02:56:09.654Z,95570.91
2023-03-11T02:58:11.325Z,95567.16
2023-03-11T03:00:16.473Z,95566.03
2023-03-11T03:02:25.259Z,95566.72
2023-03-11T03:04:27.679Z,95571.97
2023-03-11T03:06:29.275Z,95572.38
2023-03-11T03:08:31.116Z,95575.41
2023-03-11T03:10:33.202Z,95574.66
2023-03-11T03:12:34.990Z,95585.66
2023-03-11T03:14:36.571Z,95587.63
2023-03-11T03:16:38.420Z,95589.88
2023-03-11T03:18:40.456Z,95596.38
2023-03-11T03:20:43.904Z,95591.88
2023-03-11T03:22:45.899Z,95599.06
2023-03-11T03:24:50.231Z,95600.97
2023-03-11T03:26:52.124Z,95606.56
2023-03-11T03:28:53.859Z,95610.88
2023-03-11T03:30:55.731Z,95612.75
2023-03-11T03:32:57.551Z,95625.63
2023-03-11T03:34:59.410Z,95622.22
2023-03-11T03:37:12.744Z,95621.34
2023-03-11T03:39:14.500Z,95630.88
2023-03-11T03:41:16.214Z,95638.06
2023-03-11T03:43:17.999Z,95641.09
2023-03-11T03:45:21.118Z,95649.47
2023-03-11T03:47:25.942Z,95640.00
2023-03-11T03:49:27.541Z,95636.91
2023-03-11T03:51:29.652Z,95652.06
2023-03-11T03:53:38.688Z,95643.44
2023-03-11T03:55:40.689Z,95646.34
2023-03-11T03:57:43.030Z,95652.34
2023-03-11T03:59:48.257Z,95650.16
2023-03-11T04:01:50.238Z,95649.97
2023-03-11T04:03:53.172Z,95660.34
2023-03-11T04:06:09.485Z,95669.72
2023-03-11T04:08:12.076Z,95668.38
2023-03-11T04:10:14.461Z,95664.16
2023-03-11T04:12:20.324Z,95670.53
2023-03-11T04:14:22.064Z,95676.69
2023-03-11T04:16:29.162Z,95667.63
2023-03-11T04:18:36.404Z,95669.47
2023-03-11T04:20:39.340Z,95671.31
2023-03-11T04:22:41.253Z,95674.03
2023-03-11T04:24:42.944Z,95672.22
2023-03-11T04:26:45.366Z,95675.28
2023-03-11T04:28:50.612Z,95675.63
2023-03-11T04:30:52.774Z,95672.94
2023-03-11T04:32:54.951Z,95681.97
2023-03-11T04:34:56.873Z,95679.09
2023-03-11T04:36:58.608Z,95678.63
2023-03-11T04:39:04.658Z,95685.03
2023-03-11T04:41:10.759Z,95681.59
2023-03-11T04:43:14.749Z,95679.41
2023-03-11T04:45:18.400Z,95694.91
2023-03-11T04:47:21.880Z,95693.78
2023-03-11T04:49:23.605Z,95690.75
2023-03-11T04:51:26.550Z,95694.97
2023-03-11T04:53:28.533Z,95693.47
2023-03-11T04:55:30.713Z,95689.72
2023-03-11T04:57:32.655Z,95698.63
2023-03-11T04:59:34.304Z,95699.38
2023-03-11T05:01:36.553Z,95707.03
2023-03-11T05:03:40.484Z,95710.00
2023-03-11T05:05:42.686Z,95712.72
2023-03-11T05:07:45.356Z,95713.13
2023-03-11T05:09:48.525Z,95712.31
2023-03-11T05:11:50.433Z,95714.66
2023-03-11T05:13:53.920Z,95717.34
2023-03-11T05:15:55.905Z,95729.13
2023-03-11T05:17:58.482Z,95721.56
2023-03-11T05:20:00.127Z,95733.72
2023-03-11T05:22:07.233Z,95729.75
2023-03-11T05:24:08.945Z,95731.28
2023-03-11T05:26:11.156Z,95736.91
2023-03-11T05:28:14.427Z,95741.94
2023-03-11T05:30:22.091Z,95739.03
2023-03-11T05:32:23.957Z,95742.81
2023-03-11T05:34:27.210Z,95742.41
2023-03-11T05:36:29.037Z,95750.78
2023-03-11T05:38:30.757Z,95752.66
2023-03-11T05:40:32.461Z,95751.88
2023-03-11T05:42:34.887Z,95758.97
2023-03-11T05:44:37.389Z,95755.22
2023-03-11T05:46:39.455Z,95761.72
2023-03-11T05:48:42.036Z,95763.03
2023-03-11T05:50:44.095Z,95769.19
2023-03-11T05:52:45.943Z,95768.47
2023-03-11T05:54:51.997Z,95763.66
2023-03-11T05:56:57.661Z,95768.06
2023-03-11T05:58:59.928Z,95766.09
2023-03-11T06:01:11.475Z,95761.38
2023-03-11T06:03:13.151Z,95769.84
2023-03-11T06:05:15.016Z,95766.16
2023-03-11T06:07:18.452Z,95763.53
2023-03-11T06:09:22.570Z,95773.13
2023-03-11T06:11:25.738Z,95776.19
2023-03-11T06:13:27.887Z,95776.22
2023-03-11T06:15:36.452Z,95783.72
2023-03-11T06:17:38.952Z,95782.97
2023-03-11T06:19:41.565Z,95789.84
2023-03-11T06:21:44.789Z,95787.50
2023-03-11T06:23:46.812Z,95788.41
2023-03-11T06:26:04.571Z,95783.50
2023-03-11T06:28:11.482Z,95797.56
2023-03-11T06:30:14.326Z,95790.69
2023-03-11T06:32:23.037Z,95798.22
2023-03-11T06:34:25.548Z,95802.88
2023-03-11T06:36:27.396Z,95808.97
2023-03-11T06:38:29.465Z,95805.16
2023-03-11T06:40:31.101Z,95807.59
2023-03-11T06:42:32.738Z,95811.47
2023-03-11T06:44:34.496Z,95813.00
2023-03-11T06:46:36.874Z,95800.03
2023-03-11T06:48:38.485Z,95812.81
2023-03-11T06:50:40.088Z,95817.50
2023-03-11T06:52:42.023Z,95819.03
2023-03-11T06:54:44.243Z,95812.84
2023-03-11T06:56:45.974Z,95823.91
2023-03-11T06:58:48.949Z,95835.03
2023-03-11T07:00:51.835Z,95832.78
2023-03-11T07:02:53.559Z,95838.19
2023-03-11T07:04:55.762Z,95848.09
2023-03-11T07:06:57.941Z,95849.72
2023-03-11T07:09:00.135Z,95852.78
2023-03-11T07:11:05.316Z,95851.31
2023-03-11T07:13:08.377Z,95847.41
2023-03-11T07:15:10.636Z,95854.69
2023-03-11T07:17:12.517Z,95871.09
2023-03-11T07:19:20.740Z,95865.31
2023-03-11T07:21:23.299Z,95868.00
2023-03-11T07:23:25.009Z,95868.00
2023-03-11T07:25:26.575Z,95879.84
2023-03-11T07:27:28.897Z,95879.44
2023-03-11T07:29:30.471Z,95880.91
2023-03-11T07:31:34.919Z,95879.38
2023-03-11T07:33:36.620Z,95889.34
2023-03-11T07:35:38.197Z,95895.38
2023-03-11T07:37:39.762Z,95901.50
2023-03-11T07:39:41.489Z,95897.09
2023-03-11T07:41:43.620Z,95901.59
2023-03-11T07:43:45.278Z,95902.41
2023-03-11T07:45:47.367Z,95903.16
2023-03-11T07:47:48.903Z,95906.91
2023-03-11T07:49:50.525Z,95900.94
2023-03-11T07:51:52.182Z,95906.28
2023-03-11T07:53:56.793Z,95908.59
2023-03-11T07:55:59.311Z,95915.50
2023-03-11T07:58:00.969Z,95915.88
2023-03-11T08:00:02.723Z,95929.88
2023-03-11T08:02:13.349Z,95926.16
2023-03-11T08:04:16.943Z,95936.13
2023-03-11T08:06:21.903Z,95940.09
2023-03-11T08:08:23.496Z,95948.84
2023-03-11T08:10:25.107Z,95952.66
2023-03-11T08:12:26.689Z,95946.94
2023-03-11T08:14:28.482Z,95946.91
2023-03-11T08:16:30.979Z,95959.41
2023-03-11T08:18:32.913Z,95958.13
2023-03-11T08:20:37.004Z,95965.72
2023-03-11T08:22:48.720Z,95967.47
2023-03-11T08:24:57.495Z,95967.56
2023-03-11T08:26:59.102Z,95978.22
2023-03-11T08:29:00.733Z,95977.16
2023-03-11T08:31:02.595Z,95979.50
2023-03-11T08:33:04.923Z,95979.50
2023-03-11T08:35:06.899Z,95984.81
2023-03-11T08:37:08.788Z,95993.19
2023-03-11T08:39:10.517Z,95995.06
2023-03-11T08:41:12.448Z,96000.03
2023-03-11T08:43:15.228Z,95996.31
2023-03-11T08:45:16.998Z,96001.22
2023-03-11T08:47:18.578Z,96012.25
2023-03-11T08:49:20.281Z,96011.88
2023-03-11T08:51:23.107Z,96023.41
2023-03-11T08:53:25.197Z,96019.56
2023-03-11T08:55:28.215Z,96022.97
2023-03-11T08:57:30.271Z,96010.22
2023-03-11T08:59:31.868Z,96017.91
2023-03-11T09:01:33.404Z,96013.75
2023-03-11T09:03:36.058Z,96014.16
2023-03-11T09:05:37.801Z,96021.78
2023-03-11T09:07:39.833Z,96018.72
2023-03-11T09:09:41.430Z,96020.97
2023-03-11T09:11:43.098Z,96023.84
2023-03-11T09:13:45.116Z,96023.34
2023-03-11T09:15:49.059Z,96014.84
2023-03-11T09:17:50.614Z,96012.19
2023-03-11T09:19:52.233Z,96027.06
2023-03-11T09:21:53.727Z,96022.03
2023-03-11T09:23:55.257Z,96020.97
2023-03-11T09:25:56.855Z,96025.63
2023-03-11T09:27:58.519Z,96030.97
2023-03-11T09:29:59.984Z,96026.38
2023-03-11T09:32:01.557Z,96031.72
2023-03-11T09:34:03.117Z,96033.59
2023-03-11T09:36:05.120Z,96037.75
2023-03-11T09:38:06.710Z,96046.44
2023-03-11T09:40:09.380Z,96039.50
2023-03-11T09:42:19.735Z,96039.56
2023-03-11T09:44:37.271Z,96038.13
2023-03-11T09:47:03.060Z,96024.47
2023-03-11T09:49:40.530Z,96028.66
2023-03-11T09:51:57.670Z,96034.38
2023-03-11T09:54:09.995Z,96044.69
2023-03-11T09:56:17.215Z,96048.88
2023-03-11T09:58:21.619Z,96042.41
2023-03-11T10:00:24.501Z,96039.34
2023-03-11T10:02:27.681Z,96046.22
2023-03-11T10:04:45.570Z,96049.59
2023-03-11T10:06:48.318Z,96044.97
2023-03-11T10:09:00.574Z,96038.88
2023-03-11T10:11:28.521Z,96036.31
2023-03-11T10:13:44.202Z,96048.13
2023-03-11T10:16:02.119Z,96045.84
2023-03-11T10:18:03.638Z,96054.19
2023-03-11T10:20:22.079Z,96056.41
2023-03-11T10:22:44.354Z,96050.66
2023-03-11T10:25:07.834Z,96059.44
2023-03-11T10:27:22.472Z,96071.13
2023-03-11T10:29:28.909Z,96074.59
2023-03-11T10:31:37.075Z,96078.00
2023-03-11T10:33:48.037Z,96077.97
2023-03-11T10:35:59.001Z,96072.00
2023-03-11T10:38:11.896Z,96068.84
2023-03-11T10:40:28.133Z,96070.56
2023-03-11T10:42:29.840Z,96079.28
2023-03-11T10:44:40.106Z,96079.41
2023-03-11T10:46:41.606Z,96079.50
2023-03-11T10:48:43.074Z,96076.06
2023-03-11T10:51:23.576Z,96078.72
2023-03-11T10:53:25.336Z,96084.97
2023-03-11T10:55:27.038Z,96088.47
2023-03-11T10:57:34.801Z,96081.91
2023-03-11T10:59:47.736Z,96075.88
2023-03-11T11:02:04.304Z,96075.22
2023-03-11T11:04:27.251Z,96071.41
2023-03-11T11:06:34.881Z,96072.91
2023-03-11T11:08:36.829Z,96071.41
2023-03-11T11:10:50.169Z,96075.97
2023-03-11T11:12:57.499Z,96085.84
2023-03-11T11:14:59.208Z,96077.88
2023-03-11T11:17:00.803Z,96075.03
2023-03-11T11:19:10.563Z,96076.63
2023-03-11T11:21:27.655Z,96073.81
2023-03-11T11:23:40.706Z,96071.31
2023-03-11T11:25:43.698Z,96065.63
2023-03-11T11:27:56.008Z,96061.25
2023-03-11T11:30:09.565Z,96062.75
2023-03-11T11:32:20.786Z,96066.16
2023-03-11T11:34:33.778Z,96063.75
2023-03-11T11:36:38.489Z,96070.75
2023-03-11T11:38:40.834Z,96080.69
2023-03-11T11:40:42.330Z,96073.88
2023-03-11T11:42:49.104Z,96065.25
2023-03-11T11:44:59.445Z,96071.13
2023-03-11T11:47:13.053Z,96073.44
2023-03-11T11:49:25.600Z,96074.53
2023-03-11T11:51:40.112Z,96072.13
2023-03-11T11:53:52.444Z,96077.25
2023-03-11T11:55:54.682Z,96063.06
2023-03-11T11:57:57.050Z,96069.19
2023-03-11T11:59:59.000Z,96073.25
2023-03-11T12:02:23.894Z,96068.78
2023-03-11T12:05:10.423Z,96068.34
2023-03-11T12:07:42.384Z,96076.22
2023-03-11T12:10:22.143Z,96078.91
2023-03-11T12:12:44.761Z,96078.03
2023-03-11T12:14:53.490Z,96073.50
2023-03-11T12:17:04.251Z,96075.09
2023-03-11T12:19:11.997Z,96079.41
2023-03-11T12:21:31.736Z,96087.44
2023-03-11T12:24:08.163Z,96091.56
2023-03-11T12:26:22.469Z,96087.72
2023-03-11T12:28:35.040Z,96091.94
2023-03-11T12:30:43.910Z,96090.06
2023-03-11T12:32:53.761Z,96091.22
2023-03-11T12:35:00.634Z,96092.75
2023-03-11T12:37:03.466Z,96094.28
2023-03-11T12:39:06.670Z,96090.47
2023-03-11T12:41:28.472Z,96087.41
2023-03-11T12:43:33.842Z,96087.81
2023-03-11T12:45:53.388Z,96087.00
2023-03-11T12:48:25.888Z,96082.03
2023-03-11T12:50:43.486Z,96090.06
2023-03-11T12:52:54.095Z,96085.13
2023-03-11T12:54:58.641Z,96088.19
2023-03-11T12:57:19.744Z,96095.06
2023-03-11T12:59:45.964Z,96092.00
2023-03-11T13:01:56.509Z,96090.47
2023-03-11T13:04:18.300Z,96085.13
2023-03-11T13:06:42.672Z,96089.34
2023-03-11T13:08:58.848Z,96094.69
2023-03-11T13:11:00.514Z,96085.91
2023-03-11T13:13:02.676Z,96095.81
2023-03-11T13:15:22.470Z,96097.72
2023-03-11T13:17:31.179Z,96088.19
2023-03-11T13:19:35.466Z,96094.25
2023-03-11T13:21:38.663Z,96097.25
2023-03-11T13:23:43.220Z,96096.09
2023-03-11T13:26:03.861Z,96091.56
2023-03-11T13:28:33.619Z,96093.84
2023-03-11T13:30:43.293Z,96101.13
2023-03-11T13:32:50.949Z,96106.06
2023-03-11T13:35:12.831Z,96101.00
2023-03-11T13:37:39.466Z,96115.88
2023-03-11T13:40:02.684Z,96105.97
2023-03-11T13:42:17.068Z,96108.75
2023-03-11T13:44:31.628Z,96113.53
2023-03-11T13:46:38.480Z,96109.56
2023-03-11T13:48:45.846Z,96115.19
2023-03-11T13:51:18.964Z,96137.00
2023-03-11T13:53:30.931Z,96137.13
2023-03-11T13:55:36.384Z,96138.38
2023-03-11T13:57:38.061Z,96136.09
2023-03-11T13:59:39.693Z,96143.84
2023-03-11T14:01:51.489Z,96141.94
2023-03-11T14:03:53.272Z,96146.00
2023-03-11T14:06:01.993Z,96150.00
2023-03-11T14:08:26.757Z,96141.47
2023-03-11T14:10:30.576Z,96140.69
2023-03-11T14:12:32.143Z,96144.81
2023-03-11T14:14:57.488Z,96155.69
2023-03-11T14:17:01.412Z,96154.72
2023-03-11T14:19:12.132Z,96157.97
2023-03-11T14:21:16.953Z,96156.84
2023-03-11T14:23:19.766Z,96149.84
2023-03-11T14:25:25.621Z,96152.25
2023-03-11T14:27:27.495Z,96150.84
2023-03-11T14:29:35.513Z,96147.72
2023-03-11T14:31:39.891Z,96153.66
2023-03-11T14:33:41.587Z,96158.25
2023-03-11T14:35:52.996Z,96151.34
2023-03-11T14:37:54.884Z,96162.75
2023-03-11T14:39:56.520Z,96154.31
2023-03-11T14:42:12.214Z,96166.94
2023-03-11T14:44:14.040Z,96157.94
2023-03-11T14:46:22.284Z,96160.34
2023-03-11T14:48:36.495Z,96155.34
2023-03-11T14:50:38.851Z,96142.69
2023-03-11T14:52:48.665Z,96148.81
2023-03-11T14:54:53.347Z,96150.38
2023-03-11T14:57:07.344Z,96147.38
2023-03-11T14:59:26.665Z,96151.56
2023-03-11T15:01:31.883Z,96138.94
2023-03-11T15:03:37.352Z,96135.50
2023-03-11T15:05:48.260Z,96145.44
2023-03-11T15:07:57.630Z,96135.50
2023-03-11T15:09:59.262Z,96138.56
2023-03-11T15:12:04.166Z,96136.28
2023-03-11T15:14:18.167Z,96140.84
2023-03-11T15:16:31.652Z,96127.84
2023-03-11T15:18:39.080Z,96141.59
2023-03-11T15:20:40.711Z,96139.28
2023-03-11T15:22:42.179Z,96137.34
2023-03-11T15:24:50.697Z,96141.81
2023-03-11T15:26:54.197Z,96144.41
2023-03-11T15:29:01.686Z,96150.09
2023-03-11T15:31:21.507Z,96149.72
2023-03-11T15:33:32.839Z,96147.97
2023-03-11T15:35:46.844Z,96153.75
2023-03-11T15:37:51.488Z,96157.97
2023-03-11T15:39:53.179Z,96152.66
2023-03-11T15:42:15.781Z,96148.06
2023-03-11T15:44:36.885Z,96154.97
2023-03-11T15:46:38.490Z,96165.66
2023-03-11T15:48:39.995Z,96164.91
2023-03-11T15:50:56.033Z,96170.63
2023-03-11T15:52:58.865Z,96160.69
2023-03-11T15:55:00.386Z,96158.44
2023-03-11T15:57:06.095Z,96158.41
2023-03-11T15:59:13.229Z,96166.84
2023-03-11T16:01:14.724Z,96174.47
2023-03-11T16:03:17.057Z,96172.16
2023-03-11T16:05:21.294Z,96172.13
2023-03-11T16:07:38.096Z,96187.81
2023-03-11T16:09:40.915Z,96193.53
2023-03-11T16:11:43.344Z,96184.00
2023-03-11T16:13:45.073Z,96186.28
2023-03-11T16:15:47.169Z,96191.25
2023-03-11T16:17:50.429Z,96196.25
2023-03-11T16:19:52.167Z,96197.38
2023-03-11T16:21:53.724Z,96199.66
2023-03-11T16:23:55.392Z,96198.50
2023-03-11T16:26:01.870Z,96197.34
2023-03-11T16:28:04.667Z,96206.94
2023-03-11T16:30:06.581Z,96205.00
2023-03-11T16:32:09.047Z,96205.41
2023-03-11T16:34:10.601Z,96208.78
2023-03-11T16:36:12.241Z,96207.63
2023-03-11T16:38:14.472Z,96207.25
2023-03-11T16:40:21.454Z,96214.88
2023-03-11T16:42:23.940Z,96218.69
2023-03-11T16:44:25.541Z,96213.31
2023-03-11T16:46:27.725Z,96221.69
2023-03-11T16:48:29.354Z,96213.13
2023-03-11T16:50:31.898Z,96208.97
2023-03-11T16:52:33.598Z,96207.84
2023-03-11T16:54:35.356Z,96204.84
2023-03-11T16:56:41.615Z,96203.72
2023-03-11T16:58:43.346Z,96217.06
2023-03-11T17:00:45.312Z,96229.31
2023-03-11T17:02:47.262Z,96218.22
2023-03-11T17:04:49.061Z,96219.34
2023-03-11T17:06:50.614Z,96223.13
2023-03-11T17:08:52.240Z,96224.22
2023-03-11T17:10:53.724Z,96228.38
2023-03-11T17:12:56.696Z,96231.72
2023-03-11T17:14:58.275Z,96223.91
2023-03-11T17:17:00.076Z,96229.16
2023-03-11T17:19:01.800Z,96227.16
2023-03-11T17:21:12.583Z,96227.16
2023-03-11T17:23:14.119Z,96224.03
2023-03-11T17:25:15.733Z,96229.25
2023-03-11T17:27:17.490Z,96234.50
2023-03-11T17:29:19.118Z,96230.94
2023-03-11T17:31:20.740Z,96240.72
2023-03-11T17:33:22.726Z,96242.84
2023-03-11T17:35:24.386Z,96236.22
2023-03-11T17:37:26.144Z,96242.16
2023-03-11T17:39:27.737Z,96251.00
2023-03-11T17:41:29.362Z,96252.66
2023-03-11T17:43:30.929Z,96260.38
2023-03-11T17:45:32.613Z,96259.31
2023-03-11T17:47:34.221Z,96270.72
2023-03-11T17:49:35.708Z,96260.06
2023-03-11T17:51:37.260Z,96270.25
2023-03-11T17:53:40.453Z,96263.91
2023-03-11T17:55:42.033Z,96269.59
2023-03-11T17:57:45.720Z,96271.94
2023-03-11T17:59:52.526Z,96279.50
2023-03-11T18:01:54.089Z,96277.44
2023-03-11T18:03:55.903Z,96281.38
2023-03-11T18:06:02.709Z,96281.28
2023-03-11T18:08:04.369Z,96277.94
2023-03-11T18:10:07.566Z,96279.22
2023-03-11T18:12:09.311Z,96282.22
2023-03-11T18:14:12.534Z,96290.16
2023-03-11T18:16:33.886Z,96279.78
2023-03-11T18:18:36.801Z,96278.97
2023-03-11T18:20:38.708Z,96280.59
2023-03-11T18:22:46.080Z,96275.69
2023-03-11T18:24:48.586Z,96287.41
2023-03-11T18:26:50.281Z,96280.16
2023-03-11T18:28:56.171Z,96289.59
2023-03-11T18:31:04.307Z,96296.81
2023-03-11T18:33:05.927Z,96295.72
2023-03-11T18:35:08.009Z,96296.16
2023-03-11T18:37:09.558Z,96299.47
2023-03-11T18:39:12.550Z,96301.00
2023-03-11T18:41:14.381Z,96302.75
2023-03-11T18:43:15.980Z,96303.38
2023-03-11T18:45:17.638Z,96301.94
2023-03-11T18:47:19.206Z,96301.88
2023-03-11T18:49:20.726Z,96304.97
2023-03-11T18:51:22.223Z,96297.59
2023-03-11T18:53:26.838Z,96304.59
2023-03-11T18:55:28.522Z,96305.84
2023-03-11T18:57:30.297Z,96296.97
2023-03-11T18:59:32.107Z,96305.97
2023-03-11T19:01:34.376Z,96305.63
2023-03-11T19:03:36.278Z,96296.97
2023-03-11T19:05:38.210Z,96311.72
2023-03-11T19:07:39.762Z,96311.19
2023-03-11T19:09:41.402Z,96314.09
2023-03-11T19:11:42.936Z,96307.41
2023-03-11T19:13:47.812Z,96304.47
2023-03-11T19:15:49.652Z,96314.25
2023-03-11T19:18:04.359Z,96311.88
2023-03-11T19:20:08.805Z,96311.59
2023-03-11T19:22:10.421Z,96306.84
2023-03-11T19:24:12.594Z,96314.53
2023-03-11T19:26:14.125Z,96313.91
2023-03-11T19:28:16.450Z,96326.38
2023-03-11T19:30:18.662Z,96315.84
2023-03-11T19:32:20.242Z,96321.84
2023-03-11T19:34:22.343Z,96315.63
2023-03-11T19:36:24.010Z,96312.78
2023-03-11T19:38:26.547Z,96317.38
2023-03-11T19:40:30.093Z,96320.72
2023-03-11T19:42:36.212Z,96317.94
2023-03-11T19:44:37.817Z,96319.50
2023-03-11T19:46:39.671Z,96315.28
2023-03-11T19:48:41.660Z,96307.28
2023-03-11T19:50:43.443Z,96310.13
2023-03-11T19:52:45.323Z,96307.25
2023-03-11T19:54:47.108Z,96307.69
2023-03-11T19:56:49.072Z,96306.16
2023-03-11T19:58:50.633Z,96312.91
2023-03-11T20:00:52.510Z,96315.06
2023-03-11T20:02:56.526Z,96320.34
2023-03-11T20:04:58.192Z,96320.97
2023-03-11T20:07:00.495Z,96329.06
2023-03-11T20:09:02.136Z,96328.16
2023-03-11T20:11:05.466Z,96324.09
2023-03-11T20:13:07.935Z,96332.06
2023-03-11T20:15:09.961Z,96322.06
2023-03-11T20:17:12.163Z,96321.16
2023-03-11T20:19:13.771Z,96321.22
2023-03-11T20:21:15.587Z,96330.44
2023-03-11T20:23:17.140Z,96336.59
2023-03-11T20:25:18.695Z,96337.88
2023-03-11T20:27:20.338Z,96326.16
2023-03-11T20:29:22.002Z,96331.81
2023-03-11T20:31:26.264Z,96337.38
2023-03-11T20:33:27.916Z,96338.56
2023-03-11T20:35:29.685Z,96334.06
2023-03-11T20:37:31.612Z,96348.31
2023-03-11T20:39:33.226Z,96348.97
2023-03-11T20:41:38.051Z,96354.97
2023-03-11T20:43:40.221Z,96352.91
2023-03-11T20:45:41.794Z,96353.84
2023-03-11T20:47:44.305Z,96343.94
2023-03-11T20:49:46.233Z,96346.16
2023-03-11T20:51:48.409Z,96347.38
2023-03-11T20:53:50.182Z,96341.97
2023-03-11T20:55:51.767Z,96339.06
2023-03-11T20:57:54.405Z,96342.66
2023-03-11T20:59:56.201Z,96344.53
2023-03-11T21:01:57.992Z,96347.38
2023-03-11T21:04:02.312Z,96341.91
2023-03-11T21:06:04.181Z,96339.50
2023-03-11T21:08:06.079Z,96354.44
2023-03-11T21:10:11.213Z,96354.88
2023-03-11T21:12:13.113Z,96352.31
2023-03-11T21:14:16.825Z,96352.13
2023-03-11T21:16:18.673Z,96361.75
2023-03-11T21:18:20.415Z,96350.56
2023-03-11T21:20:22.600Z,96350.31
2023-03-11T21:22:24.377Z,96358.25
2023-03-11T21:24:26.299Z,96355.53
2023-03-11T21:26:28.100Z,96352.00
2023-03-11T21:28:30.058Z,96362.25
2023-03-11T21:30:31.802Z,96351.59
2023-03-11T21:32:33.602Z,96366.69
2023-03-11T21:34:35.522Z,96354.56
2023-03-11T21:36:37.729Z,96362.84
2023-03-11T21:38:42.126Z,96362.13
2023-03-11T21:40:43.880Z,96357.63
2023-03-11T21:42:45.604Z,96365.22
2023-03-11T21:44:47.774Z,96364.75
2023-03-11T21:46:49.515Z,96365.22
2023-03-11T21:48:51.255Z,96363.13
2023-03-11T21:50:53.063Z,96356.31
2023-03-11T21:52:54.949Z,96354.25
2023-03-11T21:54:57.151Z,96359.09
2023-03-11T21:56:58.862Z,96355.00
2023-03-11T21:59:00.500Z,96359.09
2023-03-11T22:01:02.959Z,96359.94
2023-03-11T22:03:04.779Z,96356.16
2023-03-11T22:05:06.738Z,96365.50
2023-03-11T22:07:08.502Z,96361.53
2023-03-11T22:09:10.244Z,96367.66
2023-03-11T22:11:17.585Z,96362.50
2023-03-11T22:13:19.653Z,96365.03
2023-03-11T22:15:21.822Z,96365.53
2023-03-11T22:17:24.315Z,96364.66
2023-03-11T22:19:25.920Z,96372.59
2023-03-11T22:21:27.666Z,96365.00
2023-03-11T22:23:29.412Z,96375.50
2023-03-11T22:25:31.016Z,96369.34
2023-03-11T22:27:32.738Z,96362.53
2023-03-11T22:29:34.315Z,96366.91
2023-03-11T22:31:36.002Z,96367.09
2023-03-11T22:33:37.687Z,96372.63
2023-03-11T22:35:39.416Z,96374.19
2023-03-11T22:37:40.989Z,96381.75
2023-03-11T22:39:43.290Z,96381.34
2023-03-11T22:41:45.119Z,96368.94
2023-03-11T22:43:47.365Z,96361.44
2023-03-11T22:45:49.133Z,96367.47
2023-03-11T22:47:50.814Z,96367.81
2023-03-11T22:49:52.435Z,96367.03
2023-03-11T22:51:53.969Z,96374.09
2023-03-11T22:53:55.557Z,96374.31
2023-03-11T22:55:57.100Z,96370.03
2023-03-11T22:57:58.646Z,96372.00
2023-03-11T23:00:00.253Z,96371.56
2023-03-11T23:02:02.124Z,96373.53
2023-03-11T23:04:03.845Z,96367.41
2023-03-11T23:06:08.272Z,96379.06
2023-03-11T23:08:12.031Z,96374.00
2023-03-11T23:10:14.888Z,96368.25
2023-03-11T23:12:16.660Z,96384.56
2023-03-11T23:14:18.611Z,96390.63
2023-03-11T23:16:22.715Z,96391.50
2023-03-11T23:18:24.337Z,96386.09
2023-03-11T23:20:26.090Z,96394.91
2023-03-11T23:22:27.980Z,96396.22
2023-03-11T23:24:30.212Z,96392.38
2023-03-11T23:26:34.001Z,96389.31
2023-03-11T23:28:35.531Z,96385.91
2023-03-11T23:30:39.490Z,96390.06
2023-03-11T23:32:41.244Z,96381.63
2023-03-11T23:34:43.023Z,96374.00
2023-03-11T23:36:44.568Z,96379.84
2023-03-11T23:38:46.756Z,96373.34
2023-03-11T23:40:48.714Z,96379.63
2023-03-11T23:42:50.709Z,96383.25
2023-03-11T23:44:52.696Z,96382.28
2023-03-11T23:46:54.357Z,96383.38
2023-03-11T23:48:55.972Z,96377.88
2023-03-11T23:50:57.987Z,96380.63
2023-03-11T23:52:59.513Z,96382.47
2023-03-11T23:55:01.501Z,96383.81
2023-03-11T23:57:03.184Z,96381.06
2023-03-11T23:59:04.764Z,96382.38
